createdAt,value
2017-11-17T00:14:29.911Z,126.80
2017-11-17T00:16:56.024Z,127.43
2017-11-17T00:19:22.963Z,121.17
2017-11-17T00:21:49.173Z,109.20
2017-11-17T00:24:15.423Z,118.33
2017-11-17T00:26:41.532Z,111.80
2017-11-17T00:29:07.719Z,121.50
2017-11-17T00:31:33.805Z,124.47
2017-11-17T00:33:59.953Z,118.90
2017-11-17T00:36:27.535Z,123.47
2017-11-17T00:38:53.680Z,114.40
2017-11-17T00:41:19.767Z,105.20
2017-11-17T00:43:45.880Z,110.93
2017-11-17T00:46:12.075Z,105.30
2017-11-17T00:48:38.292Z,102.70
2017-11-17T00:51:04.471Z,97.90
2017-11-17T00:53:30.667Z,91.77
2017-11-17T00:55:56.763Z,101.70
2017-11-17T00:58:23.078Z,94.97
2017-11-17T01:00:49.211Z,98.87
2017-11-17T01:03:15.305Z,96.97
2017-11-17T01:05:41.437Z,91.77
2017-11-17T01:08:07.549Z,95.33
2017-11-17T01:10:33.715Z,88.23
2017-11-17T01:13:01.033Z,103.87
2017-11-17T01:15:27.960Z,91.87
2017-11-17T01:17:54.108Z,85.87
2017-11-17T01:20:20.276Z,87.40
2017-11-17T01:22:46.438Z,84.50
2017-11-17T01:25:12.643Z,85.80
2017-11-17T01:27:39.853Z,96.70
2017-11-17T01:30:05.992Z,93.27
2017-11-17T01:32:32.094Z,89.73
2017-11-17T01:34:58.250Z,97.37
2017-11-17T01:37:26.874Z,104.33
2017-11-17T01:39:53.787Z,99.43
2017-11-17T01:42:19.956Z,100.47
2017-11-17T01:44:46.870Z,118.03
2017-11-17T01:47:12.978Z,105.60
2017-11-17T01:49:39.850Z,119.07
2017-11-17T01:52:06.021Z,124.30
2017-11-17T01:54:32.195Z,114.17
2017-11-17T01:56:58.491Z,123.50
2017-11-17T01:59:24.651Z,129.63
2017-11-17T02:01:50.755Z,132.23
2017-11-17T02:04:17.757Z,130.93
2017-11-17T02:06:43.898Z,125.53
2017-11-17T02:09:10.573Z,117.13
2017-11-17T02:11:37.571Z,135.47
2017-11-17T02:14:03.695Z,122.47
2017-11-17T02:16:30.503Z,127.13
2017-11-17T02:18:56.643Z,112.27
2017-11-17T02:21:22.794Z,109.27
2017-11-17T02:23:49.691Z,113.10
2017-11-17T02:26:16.015Z,120.83
2017-11-17T02:28:42.131Z,121.47
2017-11-17T02:31:08.974Z,112.47
2017-11-17T02:33:35.158Z,113.03
2017-11-17T02:36:02.125Z,120.53
2017-11-17T02:38:28.300Z,116.50
2017-11-17T02:40:54.477Z,123.23
2017-11-17T02:43:20.661Z,106.27
2017-11-17T02:45:46.805Z,114.70
2017-11-17T02:48:12.955Z,113.90
2017-11-17T02:50:39.331Z,108.67
2017-11-17T02:53:06.182Z,119.27
2017-11-17T02:55:32.367Z,115.50
2017-11-17T02:57:58.496Z,104.90
2017-11-17T03:00:24.695Z,119.57
2017-11-17T03:02:51.571Z,114.23
2017-11-17T03:05:17.739Z,117.47
2017-11-17T03:07:43.857Z,105.87
2017-11-17T03:10:10.051Z,113.40
2017-11-17T03:12:37.034Z,125.47
2017-11-17T03:15:03.126Z,122.23
2017-11-17T03:17:29.329Z,121.20
2017-11-17T03:19:55.452Z,119.23
2017-11-17T03:22:21.637Z,122.13
2017-11-17T03:24:47.768Z,119.83
2017-11-17T03:27:13.854Z,125.03
2017-11-17T03:29:40.687Z,121.37
2017-11-17T03:32:06.815Z,111.07
2017-11-17T03:34:32.926Z,127.73
2017-11-17T03:36:59.019Z,122.97
2017-11-17T03:39:25.914Z,127.50
2017-11-17T03:41:52.011Z,122.37
2017-11-17T03:44:18.127Z,115.73
2017-11-17T03:46:44.354Z,125.23
2017-11-17T03:49:10.485Z,125.90
2017-11-17T03:51:36.619Z,137.53
2017-11-17T03:54:02.750Z,138.37
2017-11-17T03:56:28.841Z,132.43
2017-11-17T03:58:55.692Z,134.10
2017-11-17T04:01:22.590Z,116.60
2017-11-17T04:03:48.745Z,123.80
2017-11-17T04:06:14.851Z,113.23
2017-11-17T04:08:41.010Z,126.43
2017-11-17T04:11:07.134Z,128.73
2017-11-17T04:13:33.238Z,108.10
2017-11-17T04:15:59.371Z,115.13
2017-11-17T04:18:25.551Z,127.97
2017-11-17T04:20:51.650Z,122.20
2017-11-17T04:23:17.798Z,120.13
2017-11-17T04:25:44.705Z,109.50
2017-11-17T04:28:10.821Z,116.83
2017-11-17T04:30:37.007Z,127.27
2017-11-17T04:33:03.136Z,123.30
2017-11-17T04:35:29.262Z,111.13
2017-11-17T04:37:55.420Z,115.50
2017-11-17T04:40:21.526Z,120.17
2017-11-17T04:42:47.677Z,112.00
2017-11-17T04:45:13.807Z,113.47
2017-11-17T04:47:39.921Z,105.20
2017-11-17T04:50:07.636Z,130.23
2017-11-17T04:52:33.809Z,123.40
2017-11-17T04:55:00.118Z,121.63
2017-11-17T04:57:26.342Z,106.27
2017-11-17T04:59:52.434Z,115.23
2017-11-17T05:02:19.335Z,108.40
2017-11-17T05:04:45.464Z,106.40
2017-11-17T05:07:11.586Z,114.77
2017-11-17T05:09:37.701Z,98.03
2017-11-17T05:12:04.554Z,108.50
2017-11-17T05:14:31.486Z,102.87
2017-11-17T05:16:57.632Z,96.73
2017-11-17T05:19:23.835Z,101.27
2017-11-17T05:21:49.963Z,93.47
2017-11-17T05:24:16.078Z,94.80
2017-11-17T05:26:42.302Z,88.97
2017-11-17T05:29:08.445Z,95.17
2017-11-17T05:31:35.376Z,99.43
2017-11-17T05:34:01.482Z,97.33
2017-11-17T05:36:27.600Z,107.83
2017-11-17T05:38:53.770Z,99.50
2017-11-17T05:41:19.874Z,101.93
2017-11-17T05:43:45.986Z,106.80
2017-11-17T05:46:12.098Z,95.70
2017-11-17T05:48:38.277Z,98.90
2017-11-17T05:51:05.178Z,113.43
2017-11-17T05:53:31.293Z,104.03
2017-11-17T05:55:57.436Z,119.80
2017-11-17T05:58:23.589Z,110.20
2017-11-17T06:00:49.705Z,104.33
2017-11-17T06:03:15.829Z,103.00
2017-11-17T06:05:42.678Z,95.90
2017-11-17T06:08:09.521Z,97.83
2017-11-17T06:10:35.639Z,103.90
2017-11-17T06:13:01.740Z,105.50
2017-11-17T06:15:27.847Z,100.77
2017-11-17T06:17:54.064Z,102.80
2017-11-17T06:20:20.176Z,117.97
2017-11-17T06:22:46.318Z,106.70
2017-11-17T06:25:12.484Z,91.20
2017-11-17T06:27:38.689Z,100.00
2017-11-17T06:30:04.786Z,111.93
2017-11-17T06:32:30.963Z,95.97
2017-11-17T06:34:57.081Z,93.43
2017-11-17T06:37:23.871Z,90.63
2017-11-17T06:39:49.988Z,101.83
2017-11-17T06:42:16.108Z,101.73
2017-11-17T06:44:42.199Z,100.87
2017-11-17T06:47:08.356Z,98.00
2017-11-17T06:49:35.257Z,102.87
2017-11-17T06:52:01.470Z,114.57
2017-11-17T06:54:27.607Z,108.20
2017-11-17T06:56:53.741Z,105.23
2017-11-17T06:59:21.429Z,99.53
2017-11-17T07:01:47.551Z,90.90
2017-11-17T07:04:13.687Z,110.23
2017-11-17T07:06:40.545Z,109.07
2017-11-17T07:09:06.681Z,86.13
2017-11-17T07:11:33.531Z,91.23
2017-11-17T07:14:00.354Z,97.33
2017-11-17T07:16:26.472Z,79.57
2017-11-17T07:18:52.584Z,83.60
2017-11-17T07:21:18.803Z,87.40
2017-11-17T07:23:45.643Z,88.70
2017-11-17T07:26:11.857Z,81.47
2017-11-17T07:28:37.974Z,73.00
2017-11-17T07:31:04.066Z,67.87
2017-11-17T07:33:30.671Z,69.17
2017-11-17T07:35:56.752Z,74.13
2017-11-17T07:38:23.629Z,70.93
2017-11-17T07:40:49.702Z,70.60
2017-11-17T07:43:15.822Z,77.57
2017-11-17T07:45:42.179Z,70.77
2017-11-17T07:48:08.337Z,60.57
2017-11-17T07:50:34.501Z,67.10
2017-11-17T07:53:00.591Z,75.60
2017-11-17T07:55:28.195Z,68.97
2017-11-17T07:57:54.323Z,61.93
2017-11-17T08:00:20.416Z,51.90
2017-11-17T08:02:46.537Z,71.07
2017-11-17T08:05:13.783Z,77.13
2017-11-17T08:07:39.963Z,55.50
2017-11-17T08:10:06.051Z,60.53
2017-11-17T08:12:32.188Z,58.20
2017-11-17T08:14:58.338Z,59.33
2017-11-17T08:17:24.571Z,48.93
2017-11-17T08:19:50.681Z,52.47
2017-11-17T08:22:16.842Z,43.17
2017-11-17T08:24:43.038Z,44.07
2017-11-17T08:27:09.182Z,41.73
2017-11-17T08:29:35.337Z,37.93
2017-11-17T08:32:01.532Z,35.70
2017-11-17T08:34:28.379Z,31.03
2017-11-17T08:36:54.541Z,45.50
2017-11-17T08:39:20.678Z,28.47
2017-11-17T08:41:46.786Z,42.63
2017-11-17T08:44:12.909Z,33.30
2017-11-17T08:46:47.337Z,32.20
2017-11-17T08:49:13.447Z,45.27
2017-11-17T08:51:40.310Z,41.07
2017-11-17T08:54:06.434Z,38.87
2017-11-17T08:56:33.316Z,42.07
2017-11-17T08:58:59.436Z,34.03
2017-11-17T09:01:26.317Z,44.07
2017-11-17T09:03:52.408Z,35.90
2017-11-17T09:06:18.542Z,32.17
2017-11-17T09:08:44.642Z,35.03
2017-11-17T09:11:10.835Z,40.93
2017-11-17T09:13:37.697Z,28.53
2017-11-17T09:16:04.531Z,36.73
2017-11-17T09:18:30.640Z,50.80
2017-11-17T09:20:56.755Z,35.43
2017-11-17T09:23:22.888Z,30.60
2017-11-17T09:25:48.997Z,28.87
2017-11-17T09:28:15.168Z,31.93
2017-11-17T09:30:41.303Z,28.90
2017-11-17T09:33:07.434Z,33.03
2017-11-17T09:35:33.530Z,34.90
2017-11-17T09:37:59.681Z,50.67
2017-11-17T09:40:26.530Z,28.67
2017-11-17T09:42:52.698Z,28.10
2017-11-17T09:45:18.855Z,25.00
2017-11-17T09:47:45.143Z,30.57
2017-11-17T09:50:11.266Z,32.57
2017-11-17T09:52:37.375Z,28.40
2017-11-17T09:55:03.544Z,25.30
2017-11-17T09:57:29.652Z,28.13
2017-11-17T09:59:55.775Z,26.13
2017-11-17T10:02:21.922Z,30.40
2017-11-17T10:04:48.013Z,24.43
2017-11-17T10:07:14.168Z,23.90
2017-11-17T10:09:41.064Z,19.30
2017-11-17T10:12:07.225Z,23.37
2017-11-17T10:14:33.337Z,21.00
2017-11-17T10:16:59.467Z,35.33
2017-11-17T10:19:25.568Z,15.60
2017-11-17T10:21:52.419Z,28.13
2017-11-17T10:24:19.351Z,25.87
2017-11-17T10:26:45.487Z,21.73
2017-11-17T10:29:11.617Z,21.43
2017-11-17T10:31:37.729Z,18.33
2017-11-17T10:34:03.862Z,24.67
2017-11-17T10:36:30.573Z,24.17
2017-11-17T10:38:56.706Z,23.80
2017-11-17T10:41:22.801Z,22.93
2017-11-17T10:43:48.931Z,27.37
2017-11-17T10:46:15.058Z,32.77
2017-11-17T10:48:41.166Z,28.23
2017-11-17T10:51:07.279Z,26.07
2017-11-17T10:53:33.434Z,25.40
2017-11-17T10:55:59.552Z,35.07
2017-11-17T10:58:25.673Z,27.67
2017-11-17T11:00:51.822Z,39.73
2017-11-17T11:03:17.925Z,18.53
2017-11-17T11:05:44.787Z,29.30
2017-11-17T11:08:10.928Z,38.13
2017-11-17T11:10:37.919Z,31.87
2017-11-17T11:13:04.106Z,24.73
2017-11-17T11:15:30.927Z,23.63
2017-11-17T11:17:57.051Z,18.70
2017-11-17T11:20:23.171Z,24.83
2017-11-17T11:22:49.336Z,27.20
2017-11-17T11:25:15.468Z,22.67
2017-11-17T11:27:41.572Z,19.60
2017-11-17T11:30:07.702Z,19.43
2017-11-17T11:32:33.826Z,26.63
2017-11-17T11:35:00.649Z,21.30
2017-11-17T11:37:26.826Z,18.33
2017-11-17T11:39:52.943Z,30.43
2017-11-17T11:42:19.082Z,21.43
2017-11-17T11:44:46.120Z,22.80
2017-11-17T11:47:12.234Z,26.70
2017-11-17T11:49:38.358Z,20.97
2017-11-17T11:52:04.464Z,21.13
2017-11-17T11:54:31.300Z,17.40
2017-11-17T11:56:57.416Z,20.73
2017-11-17T11:59:23.559Z,23.33
2017-11-17T12:01:49.673Z,17.83
2017-11-17T12:04:15.789Z,20.30
2017-11-17T12:06:41.947Z,14.73
2017-11-17T12:09:08.075Z,13.43
2017-11-17T12:11:34.222Z,23.83
2017-11-17T12:14:00.333Z,14.97
2017-11-17T12:16:26.466Z,14.50
2017-11-17T12:18:52.570Z,11.70
2017-11-17T12:21:18.703Z,13.73
2017-11-17T12:23:44.813Z,14.20
2017-11-17T12:26:11.488Z,10.50
2017-11-17T12:28:38.208Z,20.30
2017-11-17T12:31:04.877Z,15.67
2017-11-17T12:33:31.033Z,19.77
2017-11-17T12:35:57.163Z,17.80
2017-11-17T12:38:23.289Z,14.27
2017-11-17T12:40:49.421Z,20.47
2017-11-17T12:43:15.555Z,13.43
2017-11-17T12:45:41.713Z,17.67
2017-11-17T12:48:07.870Z,14.97
2017-11-17T12:50:34.081Z,17.03
2017-11-17T12:53:00.173Z,18.10
2017-11-17T12:55:27.087Z,26.37
2017-11-17T12:57:53.210Z,27.53
2017-11-17T13:00:19.314Z,17.47
2017-11-17T13:02:46.155Z,16.03
2017-11-17T13:05:13.049Z,13.53
2017-11-17T13:07:39.159Z,16.53
2017-11-17T13:10:06.026Z,15.77
2017-11-17T13:12:32.155Z,11.27
2017-11-17T13:14:59.015Z,17.67
2017-11-17T13:17:25.135Z,17.67
2017-11-17T13:19:51.290Z,20.53
2017-11-17T13:22:18.143Z,16.53
2017-11-17T13:24:45.016Z,22.13
2017-11-17T13:27:11.243Z,15.60
2017-11-17T13:29:38.076Z,14.00
2017-11-17T13:32:04.182Z,13.10
2017-11-17T13:34:30.345Z,14.60
2017-11-17T13:36:56.429Z,27.27
2017-11-17T13:39:23.410Z,29.40
2017-11-17T13:41:49.544Z,14.70
2017-11-17T13:44:15.658Z,9.77
2017-11-17T13:46:41.758Z,12.50
2017-11-17T13:49:08.063Z,16.60
2017-11-17T13:51:34.167Z,12.57
2017-11-17T13:54:00.259Z,14.17
2017-11-17T13:56:26.595Z,19.20
2017-11-17T13:58:52.719Z,11.20
2017-11-17T14:01:18.855Z,12.40
2017-11-17T14:03:45.111Z,24.00
2017-11-17T14:06:11.238Z,14.33
2017-11-17T14:08:37.356Z,16.33
2017-11-17T14:11:03.445Z,15.03
2017-11-17T14:13:29.561Z,13.27
2017-11-17T14:15:55.637Z,12.10
2017-11-17T14:18:22.490Z,13.73
2017-11-17T14:20:49.350Z,19.30
2017-11-17T14:23:16.190Z,8.10
2017-11-17T14:25:43.086Z,17.33
2017-11-17T14:28:09.197Z,16.93
2017-11-17T14:30:36.030Z,15.37
2017-11-17T14:33:02.140Z,10.77
2017-11-17T14:35:28.252Z,20.40
2017-11-17T14:37:54.390Z,10.53
2017-11-17T14:40:20.520Z,10.67
2017-11-17T14:42:46.631Z,11.87
2017-11-17T14:45:12.727Z,20.23
2017-11-17T14:47:38.898Z,15.03
2017-11-17T14:50:05.032Z,12.43
2017-11-17T14:52:31.868Z,9.50
2017-11-17T14:54:57.982Z,7.70
2017-11-17T14:57:24.115Z,11.23
2017-11-17T14:59:51.110Z,10.87
2017-11-17T15:02:17.242Z,20.80
2017-11-17T15:04:43.660Z,17.00
2017-11-17T15:07:09.809Z,22.33
2017-11-17T15:09:35.944Z,14.63
2017-11-17T15:12:02.125Z,16.93
2017-11-17T15:14:28.236Z,17.43
2017-11-17T15:16:54.512Z,18.67
2017-11-17T15:19:21.349Z,22.23
2017-11-17T15:21:47.510Z,17.03
2017-11-17T15:24:13.686Z,13.73
2017-11-17T15:26:39.836Z,21.23
2017-11-17T15:29:05.974Z,20.43
2017-11-17T15:31:32.183Z,26.83
2017-11-17T15:33:58.325Z,19.45
2017-11-17T15:36:25.753Z,21.67
2017-11-17T15:38:51.897Z,13.13
2017-11-17T15:41:18.019Z,23.70
2017-11-17T15:43:44.110Z,15.70
2017-11-17T15:46:10.334Z,21.07
2017-11-17T15:48:36.510Z,18.30
2017-11-17T15:51:02.666Z,18.20
2017-11-17T15:53:29.085Z,20.53
2017-11-17T15:55:55.272Z,16.10
2017-11-17T15:58:21.361Z,20.93
2017-11-17T16:00:47.469Z,20.33
2017-11-17T16:03:14.085Z,18.97
2017-11-17T16:05:41.608Z,22.07
2017-11-17T16:08:07.771Z,20.07
2017-11-17T16:10:33.869Z,22.90
2017-11-17T16:12:59.996Z,24.00
2017-11-17T16:15:27.443Z,22.57
2017-11-17T16:17:53.561Z,25.77
2017-11-17T16:20:19.688Z,21.53
2017-11-17T16:22:45.915Z,19.80
2017-11-17T16:25:12.409Z,20.07
2017-11-17T16:27:39.433Z,25.23
2017-11-17T16:30:05.701Z,21.10
2017-11-17T16:32:31.821Z,23.17
2017-11-17T16:34:57.934Z,31.70
2017-11-17T16:37:24.177Z,26.03
2017-11-17T16:39:50.306Z,22.70
2017-11-17T16:42:16.557Z,36.60
2017-11-17T16:44:42.733Z,33.20
2017-11-17T16:47:09.048Z,29.17
2017-11-17T16:49:35.215Z,35.77
2017-11-17T16:52:01.338Z,32.10
2017-11-17T16:54:27.433Z,41.80
2017-11-17T16:56:53.532Z,42.83
2017-11-17T16:59:19.658Z,30.17
2017-11-17T17:01:45.770Z,27.37
2017-11-17T17:04:11.882Z,26.43
2017-11-17T17:06:38.754Z,23.23
2017-11-17T17:09:04.855Z,21.03
2017-11-17T17:11:31.763Z,19.00
2017-11-17T17:13:57.940Z,34.13
2017-11-17T17:16:24.179Z,27.83
2017-11-17T17:18:50.334Z,32.30
2017-11-17T17:21:16.667Z,31.23
2017-11-17T17:23:42.757Z,27.23
2017-11-17T17:26:08.869Z,27.07
2017-11-17T17:28:35.052Z,25.17
2017-11-17T17:31:01.218Z,29.17
2017-11-17T17:33:27.307Z,28.53
2017-11-17T17:35:53.587Z,34.40
2017-11-17T17:38:20.188Z,29.50
2017-11-17T17:40:46.399Z,24.07
2017-11-17T17:43:12.531Z,32.20
2017-11-17T17:45:38.636Z,42.23
2017-11-17T17:48:04.723Z,29.90
2017-11-17T17:50:30.860Z,34.90
2017-11-17T17:52:56.995Z,41.47
2017-11-17T17:55:23.105Z,33.90
2017-11-17T17:57:49.269Z,30.33
2017-11-17T18:00:17.917Z,42.67
2017-11-17T18:02:44.026Z,42.17
2017-11-17T18:05:10.192Z,28.53
2017-11-17T18:07:36.289Z,48.50
2017-11-17T18:10:03.138Z,23.77
2017-11-17T18:12:30.295Z,28.07
2017-11-17T18:14:56.476Z,41.17
2017-11-17T18:17:23.088Z,24.80
2017-11-17T18:19:49.967Z,29.00
2017-11-17T18:22:16.098Z,29.37
2017-11-17T18:24:42.395Z,22.10
2017-11-17T18:27:08.564Z,27.17
2017-11-17T18:29:35.432Z,35.37
2017-11-17T18:32:01.565Z,35.50
2017-11-17T18:34:27.881Z,27.73
2017-11-17T18:36:53.963Z,30.57
2017-11-17T18:39:20.124Z,30.80
2017-11-17T18:41:46.283Z,27.10
2017-11-17T18:44:12.421Z,37.97
2017-11-17T18:46:38.535Z,30.23
2017-11-17T18:49:04.788Z,25.80
2017-11-17T18:51:31.682Z,27.13
2017-11-17T18:53:57.774Z,36.33
2017-11-17T18:56:24.030Z,36.40
2017-11-17T18:58:50.165Z,30.50
2017-11-17T19:01:16.256Z,37.80
2017-11-17T19:03:42.394Z,43.17
2017-11-17T19:06:08.569Z,30.70
2017-11-17T19:08:34.684Z,24.10
2017-11-17T19:11:00.863Z,34.30
2017-11-17T19:13:28.036Z,28.27
2017-11-17T19:15:54.149Z,25.90
2017-11-17T19:18:20.255Z,29.67
2017-11-17T19:20:46.339Z,31.17
2017-11-17T19:23:12.447Z,27.03
2017-11-17T19:25:38.593Z,30.10
2017-11-17T19:28:04.698Z,43.00
2017-11-17T19:30:30.873Z,32.83
2017-11-17T19:32:57.029Z,38.00
2017-11-17T19:35:23.112Z,27.70
2017-11-17T19:37:49.990Z,31.10
2017-11-17T19:40:16.242Z,35.30
2017-11-17T19:42:42.389Z,29.43
2017-11-17T19:45:08.570Z,38.43
2017-11-17T19:47:35.490Z,41.73
2017-11-17T19:50:01.612Z,43.90
2017-11-17T19:52:27.931Z,34.17
2017-11-17T19:54:54.158Z,33.23
2017-11-17T19:57:21.078Z,36.83
2017-11-17T19:59:47.211Z,29.43
2017-11-17T20:02:13.354Z,36.47
2017-11-17T20:04:39.502Z,29.30
2017-11-17T20:07:05.766Z,29.80
2017-11-17T20:09:33.346Z,28.83
2017-11-17T20:12:00.178Z,45.83
2017-11-17T20:14:26.284Z,38.03
2017-11-17T20:16:52.458Z,31.03
2017-11-17T20:19:18.590Z,40.37
2017-11-17T20:21:44.740Z,26.53
2017-11-17T20:24:10.878Z,33.53
2017-11-17T20:26:37.127Z,28.87
2017-11-17T20:29:03.256Z,30.73
2017-11-17T20:31:30.108Z,34.17
2017-11-17T20:33:56.236Z,31.50
2017-11-17T20:36:22.353Z,31.97
2017-11-17T20:38:48.496Z,27.67
2017-11-17T20:41:14.687Z,33.03
2017-11-17T20:43:40.846Z,30.97
2017-11-17T20:46:07.023Z,24.70
2017-11-17T20:48:33.244Z,30.53
2017-11-17T20:50:59.386Z,28.90
2017-11-17T20:53:25.537Z,27.17
2017-11-17T20:55:52.510Z,32.70
2017-11-17T20:58:18.665Z,28.20
2017-11-17T21:00:45.556Z,21.50
2017-11-17T21:03:11.784Z,21.87
2017-11-17T21:05:37.932Z,38.00
2017-11-17T21:08:04.105Z,33.90
2017-11-17T21:10:30.258Z,37.40
2017-11-17T21:12:56.454Z,39.37
2017-11-17T21:15:22.608Z,27.87
2017-11-17T21:17:48.711Z,27.93
2017-11-17T21:20:15.615Z,29.20
2017-11-17T21:22:41.762Z,23.87
2017-11-17T21:25:07.898Z,29.60
2017-11-17T21:27:34.015Z,25.90
2017-11-17T21:30:00.346Z,32.60
2017-11-17T21:32:26.968Z,30.73
2017-11-17T21:34:53.185Z,40.20
2017-11-17T21:37:19.273Z,24.83
2017-11-17T21:39:45.402Z,31.73
2017-11-17T21:42:11.609Z,25.57
2017-11-17T21:44:37.930Z,29.07
2017-11-17T21:47:04.013Z,33.77
2017-11-17T21:49:30.127Z,38.63
2017-11-17T21:51:56.493Z,25.67
2017-11-17T21:54:23.304Z,33.63
2017-11-17T21:56:49.477Z,27.50
2017-11-17T21:59:15.709Z,25.60
2017-11-17T22:01:42.535Z,31.77
2017-11-17T22:04:08.674Z,37.60
2017-11-17T22:06:34.786Z,27.67
2017-11-17T22:09:00.907Z,32.17
2017-11-17T22:11:26.980Z,25.10
2017-11-17T22:13:53.168Z,33.90
2017-11-17T22:16:19.274Z,28.53
2017-11-17T22:18:45.505Z,30.10
2017-11-17T22:21:11.618Z,27.83
2017-11-17T22:23:38.043Z,23.30
2017-11-17T22:26:04.130Z,27.83
2017-11-17T22:28:30.369Z,30.47
2017-11-17T22:30:57.385Z,30.73
2017-11-17T22:33:23.521Z,24.00
2017-11-17T22:35:49.711Z,21.93
2017-11-17T22:38:15.843Z,26.27
2017-11-17T22:40:42.855Z,19.40
2017-11-17T22:43:09.240Z,31.30
2017-11-17T22:45:35.555Z,25.83
2017-11-17T22:48:02.308Z,26.40
2017-11-17T22:50:28.441Z,31.97
2017-11-17T22:52:54.530Z,22.13
2017-11-17T22:55:20.841Z,23.67
2017-11-17T22:57:47.027Z,29.93
2017-11-17T23:00:13.841Z,31.00
2017-11-17T23:02:39.954Z,28.77
2017-11-17T23:05:06.084Z,29.10
2017-11-17T23:07:33.021Z,24.23
2017-11-17T23:09:59.899Z,27.57
2017-11-17T23:12:26.069Z,23.97
2017-11-17T23:14:52.206Z,23.53
2017-11-17T23:17:18.307Z,20.63
2017-11-17T23:19:44.480Z,29.37
2017-11-17T23:22:10.576Z,30.20
2017-11-17T23:24:36.700Z,32.07
2017-11-17T23:27:03.598Z,27.13
2017-11-17T23:29:29.679Z,36.43
2017-11-17T23:31:55.795Z,27.00
2017-11-17T23:34:21.921Z,28.40
2017-11-17T23:36:48.040Z,30.00
2017-11-17T23:39:15.003Z,38.57
2017-11-17T23:41:41.242Z,32.67
2017-11-17T23:44:07.415Z,27.40
2017-11-17T23:46:33.672Z,27.20
2017-11-17T23:48:59.778Z,25.60
2017-11-17T23:51:25.990Z,22.87
2017-11-17T23:53:52.230Z,27.80
2017-11-17T23:56:18.360Z,24.63
2017-11-17T23:58:44.486Z,26.57
